createdAt,value
2018-02-18T00:01:01.881Z,84.58
2018-02-18T00:02:01.322Z,84.72
2018-02-18T00:03:55.776Z,84.63
2018-02-18T00:04:55.775Z,84.81
2018-02-18T00:06:51.697Z,84.72
2018-02-18T00:07:51.692Z,85.28
2018-02-18T00:09:47.645Z,85.00
2018-02-18T00:10:47.603Z,85.19
2018-02-18T00:12:43.534Z,85.10
2018-02-18T00:13:43.513Z,84.81
2018-02-18T00:15:40.002Z,85.10
2018-02-18T00:16:39.450Z,85.10
2018-02-18T00:18:35.397Z,85.10
2018-02-18T00:19:35.346Z,84.81
2018-02-18T00:21:34.290Z,85.10
2018-02-18T00:22:33.386Z,85.19
2018-02-18T00:24:29.343Z,85.57
2018-02-18T00:25:29.308Z,85.38
2018-02-18T00:27:23.738Z,85.10
2018-02-18T00:28:24.250Z,84.44
2018-02-18T00:30:20.175Z,84.72
2018-02-18T00:31:19.657Z,84.53
2018-02-18T00:33:15.588Z,84.72
2018-02-18T00:34:14.055Z,85.00
2018-02-18T00:36:11.000Z,84.16
2018-02-18T00:37:09.977Z,84.16
2018-02-18T00:39:05.881Z,84.06
2018-02-18T00:40:05.890Z,84.06
2018-02-18T00:42:02.814Z,84.06
2018-02-18T00:43:01.809Z,84.34
2018-02-18T00:44:55.208Z,83.68
2018-02-18T00:45:55.204Z,83.78
2018-02-18T00:47:51.184Z,83.78
2018-02-18T00:48:51.108Z,84.53
2018-02-18T00:50:48.060Z,83.87
2018-02-18T00:51:47.002Z,84.44
2018-02-18T00:53:41.439Z,84.06
2018-02-18T00:54:41.415Z,83.97
2018-02-18T00:56:38.870Z,84.34
2018-02-18T00:57:37.345Z,84.16
2018-02-18T00:59:33.294Z,84.53
2018-02-18T01:00:33.276Z,84.44
2018-02-18T01:02:29.632Z,84.53
2018-02-18T01:03:27.688Z,84.72
2018-02-18T01:05:24.129Z,84.72
2018-02-18T01:06:23.579Z,84.44
2018-02-18T01:08:20.026Z,84.53
2018-02-18T01:09:20.032Z,84.53
2018-02-18T01:11:15.391Z,84.63
2018-02-18T01:12:15.920Z,84.63
2018-02-18T01:14:11.308Z,84.53
2018-02-18T01:15:11.846Z,84.81
2018-02-18T01:17:07.201Z,84.53
2018-02-18T01:18:07.759Z,84.81
2018-02-18T01:20:04.160Z,84.63
2018-02-18T01:21:03.130Z,84.53
2018-02-18T01:22:59.596Z,84.72
2018-02-18T01:23:59.034Z,84.44
2018-02-18T01:25:54.994Z,84.91
2018-02-18T01:26:54.953Z,84.72
2018-02-18T01:28:49.892Z,84.81
2018-02-18T01:29:49.337Z,84.91
2018-02-18T01:31:43.277Z,84.72
2018-02-18T01:32:42.757Z,84.72
2018-02-18T01:34:36.192Z,84.53
2018-02-18T01:35:36.164Z,85.00
2018-02-18T01:37:32.137Z,85.19
2018-02-18T01:38:32.135Z,85.28
2018-02-18T01:40:25.545Z,85.28
2018-02-18T01:41:27.083Z,85.28
2018-02-18T01:43:20.468Z,85.19
2018-02-18T01:44:19.963Z,85.19
2018-02-18T01:46:15.856Z,85.28
2018-02-18T01:47:15.846Z,84.81
2018-02-18T01:49:12.326Z,85.38
2018-02-18T01:50:12.293Z,85.38
2018-02-18T01:52:08.715Z,85.24
2018-02-18T01:53:07.675Z,85.15
2018-02-18T01:55:03.622Z,84.91
2018-02-18T01:56:04.139Z,85.19
2018-02-18T01:57:58.546Z,85.10
2018-02-18T01:58:57.973Z,85.10
2018-02-18T02:00:51.923Z,85.00
2018-02-18T02:01:51.919Z,85.34
2018-02-18T02:03:47.318Z,85.05
2018-02-18T02:04:47.327Z,85.19
2018-02-18T02:06:40.775Z,85.57
2018-02-18T02:07:40.728Z,85.10
2018-02-18T02:09:37.677Z,85.47
2018-02-18T02:10:36.647Z,85.38
2018-02-18T02:12:32.588Z,85.15
2018-02-18T02:13:32.567Z,85.34
2018-02-18T02:15:27.490Z,85.53
2018-02-18T02:16:26.961Z,86.00
2018-02-18T02:18:22.924Z,85.95
2018-02-18T02:19:22.851Z,86.10
2018-02-18T02:21:20.303Z,85.24
2018-02-18T02:22:19.306Z,85.05
2018-02-18T02:24:15.217Z,85.24
2018-02-18T02:25:14.673Z,85.05
2018-02-18T02:27:09.633Z,85.10
2018-02-18T02:28:09.619Z,85.15
2018-02-18T02:30:04.037Z,84.86
2018-02-18T02:31:03.490Z,85.24
2018-02-18T02:32:57.921Z,84.86
2018-02-18T02:33:57.893Z,85.72
2018-02-18T02:35:52.335Z,85.62
2018-02-18T02:36:52.831Z,86.29
2018-02-18T02:38:48.301Z,85.57
2018-02-18T02:39:48.757Z,85.05
2018-02-18T02:41:44.128Z,85.72
2018-02-18T02:42:44.109Z,85.34
2018-02-18T02:44:41.573Z,85.34
2018-02-18T02:45:40.989Z,85.43
2018-02-18T02:47:35.976Z,85.62
2018-02-18T02:48:35.966Z,85.24
2018-02-18T02:50:30.347Z,85.34
2018-02-18T02:51:30.359Z,85.15
2018-02-18T02:53:24.770Z,85.15
2018-02-18T02:54:24.755Z,85.34
2018-02-18T02:56:19.180Z,85.05
2018-02-18T02:57:19.180Z,84.86
2018-02-18T02:59:12.597Z,85.05
2018-02-18T03:00:12.580Z,84.96
2018-02-18T03:02:10.518Z,85.05
2018-02-18T03:03:10.497Z,85.34
2018-02-18T03:05:05.438Z,85.15
2018-02-18T03:06:04.906Z,84.68
2018-02-18T03:08:01.378Z,84.39
2018-02-18T03:09:00.867Z,84.58
2018-02-18T03:10:57.228Z,84.49
2018-02-18T03:11:56.715Z,85.15
2018-02-18T03:13:52.676Z,85.05
2018-02-18T03:14:52.637Z,85.15
2018-02-18T03:16:47.105Z,85.15
2018-02-18T03:17:47.048Z,85.24
2018-02-18T03:19:43.485Z,85.05
2018-02-18T03:20:42.954Z,85.34
2018-02-18T03:22:38.912Z,84.96
2018-02-18T03:23:39.411Z,85.15
2018-02-18T03:25:34.768Z,85.15
2018-02-18T03:26:34.776Z,85.53
2018-02-18T03:28:32.206Z,85.53
2018-02-18T03:29:31.204Z,85.24
2018-02-18T03:31:26.607Z,85.24
2018-02-18T03:32:26.572Z,85.24
2018-02-18T03:34:21.497Z,85.43
2018-02-18T03:35:21.545Z,85.05
2018-02-18T03:37:17.405Z,85.43
2018-02-18T03:38:16.898Z,85.24
2018-02-18T03:40:13.324Z,85.05
2018-02-18T03:41:12.806Z,85.05
2018-02-18T03:43:07.212Z,85.43
2018-02-18T03:44:07.731Z,85.05
2018-02-18T03:46:03.584Z,85.15
2018-02-18T03:47:02.147Z,84.86
2018-02-18T03:48:56.044Z,85.91
2018-02-18T03:49:56.033Z,86.00
2018-02-18T03:51:50.476Z,85.91
2018-02-18T03:52:49.443Z,85.72
2018-02-18T03:54:44.386Z,85.72
2018-02-18T03:55:43.853Z,85.91
2018-02-18T03:57:39.766Z,85.72
2018-02-18T03:58:39.747Z,85.62
2018-02-18T04:00:35.674Z,85.53
2018-02-18T04:01:35.653Z,86.10
2018-02-18T04:03:31.078Z,86.29
2018-02-18T04:04:31.064Z,86.10
2018-02-18T04:06:25.514Z,86.29
2018-02-18T04:07:25.475Z,86.29
2018-02-18T04:09:21.386Z,86.19
2018-02-18T04:10:21.394Z,86.38
2018-02-18T04:12:16.333Z,86.38
2018-02-18T04:13:15.810Z,86.29
2018-02-18T04:15:11.711Z,86.10
2018-02-18T04:16:11.713Z,86.29
2018-02-18T04:18:07.667Z,86.29
2018-02-18T04:19:07.604Z,85.53
2018-02-18T04:21:04.565Z,86.10
2018-02-18T04:22:03.516Z,86.29
2018-02-18T04:23:57.944Z,86.00
2018-02-18T04:24:57.932Z,86.10
2018-02-18T04:26:52.864Z,86.29
2018-02-18T04:27:52.352Z,86.57
2018-02-18T04:29:46.286Z,86.66
2018-02-18T04:30:45.761Z,86.29
2018-02-18T04:32:42.216Z,86.94
2018-02-18T04:33:42.214Z,86.29
2018-02-18T04:35:38.612Z,86.29
2018-02-18T04:36:37.584Z,86.47
2018-02-18T04:38:30.975Z,86.29
2018-02-18T04:39:30.959Z,86.57
2018-02-18T04:41:27.400Z,86.85
2018-02-18T04:42:26.856Z,86.85
2018-02-18T04:44:22.824Z,86.57
2018-02-18T04:45:23.300Z,86.94
2018-02-18T04:47:17.717Z,86.76
2018-02-18T04:48:17.186Z,86.76
2018-02-18T04:50:13.126Z,86.76
2018-02-18T04:51:13.117Z,87.23
2018-02-18T04:53:10.064Z,87.04
2018-02-18T04:54:09.022Z,86.76
2018-02-18T04:56:03.967Z,86.76
2018-02-18T04:57:03.448Z,87.42
2018-02-18T04:58:59.348Z,86.94
2018-02-18T04:59:59.343Z,86.94
2018-02-18T05:01:53.266Z,86.57
2018-02-18T05:02:53.275Z,86.57
2018-02-18T05:04:48.655Z,86.85
2018-02-18T05:05:49.183Z,87.04
2018-02-18T05:07:43.585Z,86.85
2018-02-18T05:08:43.109Z,86.76
2018-02-18T05:10:39.000Z,86.66
2018-02-18T05:11:39.511Z,87.13
2018-02-18T05:13:34.426Z,87.13
2018-02-18T05:14:33.404Z,87.23
2018-02-18T05:16:32.346Z,87.23
2018-02-18T05:17:31.856Z,87.61
2018-02-18T05:19:27.246Z,86.66
2018-02-18T05:20:27.234Z,86.76
2018-02-18T05:22:23.163Z,86.94
2018-02-18T05:23:23.148Z,86.94
2018-02-18T05:25:19.107Z,86.76
2018-02-18T05:26:20.014Z,86.66
2018-02-18T05:28:14.940Z,86.47
2018-02-18T05:29:14.954Z,86.85
2018-02-18T05:31:10.903Z,87.04
2018-02-18T05:32:10.862Z,87.04
2018-02-18T05:34:06.771Z,86.57
2018-02-18T05:35:07.293Z,87.04
2018-02-18T05:37:02.722Z,86.85
2018-02-18T05:38:04.196Z,86.94
2018-02-18T05:39:57.611Z,86.85
2018-02-18T05:40:57.622Z,86.85
2018-02-18T05:42:53.003Z,87.04
2018-02-18T05:43:53.503Z,86.85
2018-02-18T05:45:47.922Z,86.76
2018-02-18T05:46:47.379Z,87.04
2018-02-18T05:48:43.256Z,86.85
2018-02-18T05:49:43.256Z,86.85
2018-02-18T05:51:40.200Z,87.23
2018-02-18T05:52:39.200Z,86.66
2018-02-18T05:54:34.149Z,86.57
2018-02-18T05:55:33.602Z,87.23
2018-02-18T05:57:29.035Z,87.32
2018-02-18T05:58:28.004Z,87.32
2018-02-18T06:00:23.965Z,87.04
2018-02-18T06:01:23.914Z,87.04
2018-02-18T06:03:19.852Z,86.94
2018-02-18T06:04:19.846Z,87.23
2018-02-18T06:06:16.268Z,87.04
2018-02-18T06:07:15.724Z,87.04
2018-02-18T06:09:11.669Z,87.32
2018-02-18T06:10:11.640Z,87.23
2018-02-18T06:12:08.091Z,87.23
2018-02-18T06:13:07.550Z,88.08
2018-02-18T06:15:01.967Z,87.98
2018-02-18T06:16:01.954Z,87.42
2018-02-18T06:17:58.424Z,87.61
2018-02-18T06:18:57.874Z,87.89
2018-02-18T06:20:52.276Z,88.08
2018-02-18T06:21:52.305Z,87.32
2018-02-18T06:23:48.720Z,87.04
2018-02-18T06:24:48.725Z,87.04
2018-02-18T06:26:43.643Z,87.04
2018-02-18T06:27:42.628Z,87.51
2018-02-18T06:29:38.596Z,87.32
2018-02-18T06:30:39.081Z,87.23
2018-02-18T06:32:34.995Z,87.61
2018-02-18T06:33:34.458Z,87.23
2018-02-18T06:35:30.367Z,87.32
2018-02-18T06:36:30.368Z,87.23
2018-02-18T06:38:26.828Z,87.89
2018-02-18T06:39:26.244Z,87.89
2018-02-18T06:41:19.665Z,87.89
2018-02-18T06:42:19.653Z,87.32
2018-02-18T06:44:14.610Z,87.61
2018-02-18T06:45:14.073Z,87.42
2018-02-18T06:47:08.535Z,87.42
2018-02-18T06:48:08.483Z,87.23
2018-02-18T06:50:03.924Z,87.23
2018-02-18T06:51:03.419Z,87.32
2018-02-18T06:52:57.873Z,87.42
2018-02-18T06:53:57.304Z,87.23
2018-02-18T06:55:51.780Z,87.23
2018-02-18T06:56:51.732Z,87.23
2018-02-18T06:58:46.139Z,87.42
2018-02-18T06:59:46.123Z,87.42
2018-02-18T07:01:42.030Z,87.23
2018-02-18T07:02:42.567Z,87.32
2018-02-18T07:04:37.972Z,87.32
2018-02-18T07:05:38.487Z,87.42
2018-02-18T07:07:33.910Z,86.57
2018-02-18T07:08:34.393Z,86.94
2018-02-18T07:10:28.816Z,86.66
2018-02-18T07:11:28.806Z,87.23
2018-02-18T07:13:24.209Z,87.13
2018-02-18T07:14:24.206Z,86.76
2018-02-18T07:16:18.158Z,86.85
2018-02-18T07:17:18.164Z,86.66
2018-02-18T07:19:12.041Z,86.85
2018-02-18T07:20:12.573Z,86.47
2018-02-18T07:22:07.947Z,86.76
2018-02-18T07:23:07.932Z,86.76
2018-02-18T07:25:03.871Z,87.04
2018-02-18T07:26:03.848Z,86.57
2018-02-18T07:27:59.828Z,86.10
2018-02-18T07:28:59.744Z,86.85
2018-02-18T07:30:56.189Z,86.38
2018-02-18T07:31:55.662Z,86.29
2018-02-18T07:33:52.611Z,86.10
2018-02-18T07:34:52.123Z,85.62
2018-02-18T07:36:47.544Z,85.95
2018-02-18T07:37:47.495Z,85.62
2018-02-18T07:39:42.426Z,85.57
2018-02-18T07:40:41.890Z,85.76
2018-02-18T07:42:38.346Z,85.00
2018-02-18T07:43:37.795Z,85.38
2018-02-18T07:45:33.760Z,85.19
2018-02-18T07:46:35.173Z,85.19
2018-02-18T07:48:28.107Z,85.10
2018-02-18T07:49:28.122Z,85.38
2018-02-18T07:51:24.093Z,85.00
2018-02-18T07:52:24.562Z,84.44
2018-02-18T07:54:19.979Z,84.81
2018-02-18T07:55:20.465Z,84.63
2018-02-18T07:57:15.872Z,84.16
2018-02-18T07:58:15.864Z,84.16
2018-02-18T08:00:10.788Z,84.16
2018-02-18T08:01:10.778Z,84.34
2018-02-18T08:03:05.687Z,83.87
2018-02-18T08:04:04.654Z,84.06
2018-02-18T08:06:00.564Z,83.59
2018-02-18T08:07:01.104Z,83.49
2018-02-18T08:08:56.535Z,83.40
2018-02-18T08:09:56.475Z,83.11
2018-02-18T08:11:52.439Z,82.97
2018-02-18T08:12:52.394Z,83.30
2018-02-18T08:14:48.834Z,83.30
2018-02-18T08:15:48.825Z,83.21
2018-02-18T08:17:44.755Z,82.97
2018-02-18T08:18:44.809Z,82.87
2018-02-18T08:20:40.655Z,82.40
2018-02-18T08:21:40.656Z,82.21
2018-02-18T08:23:36.574Z,82.31
2018-02-18T08:24:36.059Z,82.31
2018-02-18T08:26:30.459Z,81.93
2018-02-18T08:27:30.992Z,82.12
2018-02-18T08:29:27.906Z,81.36
2018-02-18T08:30:26.391Z,81.36
2018-02-18T08:32:19.796Z,81.36
2018-02-18T08:33:19.794Z,81.55
2018-02-18T08:35:16.247Z,81.36
2018-02-18T08:36:15.716Z,81.26
2018-02-18T08:38:11.176Z,81.45
2018-02-18T08:39:10.095Z,80.88
2018-02-18T08:41:05.031Z,81.07
2018-02-18T08:42:04.532Z,80.88
2018-02-18T08:44:00.427Z,80.69
2018-02-18T08:45:00.420Z,80.60
2018-02-18T08:46:54.876Z,80.41
2018-02-18T08:47:55.367Z,80.22
2018-02-18T08:49:49.278Z,80.13
2018-02-18T08:50:49.786Z,79.88
2018-02-18T08:52:45.186Z,79.98
2018-02-18T08:53:45.696Z,79.60
2018-02-18T08:55:38.636Z,79.69
2018-02-18T08:56:38.608Z,79.60
2018-02-18T08:58:35.051Z,79.69
2018-02-18T08:59:34.493Z,79.50
2018-02-18T09:01:30.941Z,79.13
2018-02-18T09:02:30.955Z,79.03
2018-02-18T09:04:26.378Z,79.13
2018-02-18T09:05:26.876Z,79.13
2018-02-18T09:07:22.307Z,78.56
2018-02-18T09:08:22.265Z,78.08
2018-02-18T09:10:19.196Z,78.37
2018-02-18T09:11:18.191Z,77.99
2018-02-18T09:13:14.121Z,77.51
2018-02-18T09:14:14.089Z,77.89
2018-02-18T09:16:09.066Z,77.14
2018-02-18T09:17:09.036Z,77.56
2018-02-18T09:19:04.470Z,77.56
2018-02-18T09:20:04.452Z,77.27
2018-02-18T09:22:01.399Z,77.27
2018-02-18T09:23:00.905Z,76.99
2018-02-18T09:24:55.813Z,76.70
2018-02-18T09:25:54.789Z,76.51
2018-02-18T09:27:49.261Z,76.61
2018-02-18T09:28:49.177Z,76.80
2018-02-18T09:30:44.556Z,76.80
2018-02-18T09:31:43.589Z,76.51
2018-02-18T09:33:39.043Z,76.42
2018-02-18T09:34:38.583Z,75.85
2018-02-18T09:36:32.437Z,75.57
2018-02-18T09:37:32.425Z,75.57
2018-02-18T09:39:26.487Z,75.57
2018-02-18T09:40:26.382Z,75.19
2018-02-18T09:42:19.326Z,75.38
2018-02-18T09:43:19.281Z,75.51
2018-02-18T09:45:14.232Z,75.32
2018-02-18T09:46:13.689Z,75.42
2018-02-18T09:48:08.125Z,74.95
2018-02-18T09:49:08.090Z,75.32
2018-02-18T09:51:02.526Z,74.95
2018-02-18T09:52:02.522Z,74.18
2018-02-18T09:53:56.985Z,74.56
2018-02-18T09:54:57.473Z,74.56
2018-02-18T09:56:51.896Z,74.09
2018-02-18T09:57:51.373Z,74.66
2018-02-18T09:59:45.792Z,74.09
2018-02-18T10:00:46.342Z,73.99
2018-02-18T10:02:40.228Z,74.37
2018-02-18T10:03:41.160Z,73.90
2018-02-18T10:05:35.156Z,73.52
2018-02-18T10:06:35.171Z,73.52
2018-02-18T10:08:29.064Z,73.14
2018-02-18T10:09:29.010Z,72.96
2018-02-18T10:11:23.960Z,72.96
2018-02-18T10:12:23.444Z,73.14
2018-02-18T10:14:18.424Z,73.18
2018-02-18T10:15:17.842Z,73.18
2018-02-18T10:17:11.304Z,73.18
2018-02-18T10:18:11.272Z,72.89
2018-02-18T10:20:04.718Z,72.80
2018-02-18T10:21:04.694Z,72.61
2018-02-18T10:22:59.117Z,72.99
2018-02-18T10:23:59.105Z,72.04
2018-02-18T10:25:52.530Z,72.71
2018-02-18T10:26:52.517Z,71.76
2018-02-18T10:28:48.433Z,72.23
2018-02-18T10:29:48.431Z,72.04
2018-02-18T10:31:42.930Z,71.47
2018-02-18T10:32:42.867Z,71.47
2018-02-18T10:34:37.305Z,71.95
2018-02-18T10:35:37.305Z,71.95
2018-02-18T10:37:30.758Z,71.28
2018-02-18T10:38:31.247Z,71.28
2018-02-18T10:40:24.167Z,71.38
2018-02-18T10:41:24.685Z,71.38
2018-02-18T10:43:18.641Z,70.62
2018-02-18T10:44:19.131Z,70.81
2018-02-18T10:46:13.634Z,70.62
2018-02-18T10:47:13.011Z,70.62
2018-02-18T10:49:07.961Z,70.72
2018-02-18T10:50:07.430Z,70.53
2018-02-18T10:52:02.386Z,70.62
2018-02-18T10:53:02.385Z,70.62
2018-02-18T10:54:56.277Z,70.75
2018-02-18T10:55:56.805Z,70.28
2018-02-18T10:57:52.250Z,69.90
2018-02-18T10:58:52.744Z,69.90
2018-02-18T11:00:46.692Z,69.61
2018-02-18T11:01:46.632Z,69.80
2018-02-18T11:03:41.071Z,69.23
2018-02-18T11:04:41.607Z,69.13
2018-02-18T11:06:34.526Z,69.04
2018-02-18T11:07:34.490Z,69.42
2018-02-18T11:09:31.359Z,68.57
2018-02-18T11:10:30.402Z,68.76
2018-02-18T11:12:23.877Z,68.04
2018-02-18T11:13:23.823Z,68.13
2018-02-18T11:15:18.254Z,68.79
2018-02-18T11:16:18.244Z,68.79
2018-02-18T11:18:12.661Z,67.71
2018-02-18T11:19:14.191Z,67.94
2018-02-18T11:21:07.586Z,68.41
2018-02-18T11:22:07.065Z,67.85
2018-02-18T11:24:03.502Z,68.13
2018-02-18T11:25:02.997Z,67.08
2018-02-18T11:26:56.409Z,66.61
2018-02-18T11:27:56.429Z,65.85
2018-02-18T11:29:50.841Z,66.23
2018-02-18T11:30:50.827Z,66.33
2018-02-18T11:32:45.294Z,65.75
2018-02-18T11:33:45.247Z,65.85
2018-02-18T11:35:40.199Z,66.04
2018-02-18T11:36:39.681Z,66.04
2018-02-18T11:38:33.638Z,65.56
2018-02-18T11:39:33.648Z,65.47
2018-02-18T11:41:26.515Z,64.81
2018-02-18T11:42:26.503Z,64.81
2018-02-18T11:44:20.931Z,64.37
2018-02-18T11:45:21.482Z,64.75
2018-02-18T11:47:16.894Z,63.70
2018-02-18T11:48:16.885Z,63.32
2018-02-18T11:50:11.789Z,63.70
2018-02-18T11:51:11.274Z,63.60
2018-02-18T11:53:08.222Z,63.32
2018-02-18T11:54:07.322Z,62.94
2018-02-18T11:56:00.745Z,62.75
2018-02-18T11:57:01.702Z,61.71
2018-02-18T11:58:56.125Z,61.52
2018-02-18T11:59:55.187Z,60.95
2018-02-18T12:01:49.591Z,60.76
2018-02-18T12:02:50.123Z,60.10
2018-02-18T12:04:44.056Z,60.85
2018-02-18T12:05:44.032Z,60.57
2018-02-18T12:07:38.974Z,60.76
2018-02-18T12:08:38.445Z,60.60
2018-02-18T12:10:34.411Z,59.93
2018-02-18T12:11:34.369Z,59.52
2018-02-18T12:13:30.818Z,59.74
2018-02-18T12:14:30.306Z,60.03
2018-02-18T12:16:25.746Z,60.22
2018-02-18T12:17:25.252Z,59.46
2018-02-18T12:19:18.170Z,59.17
2018-02-18T12:20:18.156Z,58.98
2018-02-18T12:22:11.577Z,58.80
2018-02-18T12:23:12.103Z,58.80
2018-02-18T12:25:07.013Z,58.80
2018-02-18T12:26:06.004Z,59.08
2018-02-18T12:28:00.409Z,59.08
2018-02-18T12:29:00.415Z,59.08
2018-02-18T12:30:54.851Z,58.80
2018-02-18T12:31:54.839Z,58.80
2018-02-18T12:33:48.809Z,58.89
2018-02-18T12:34:48.272Z,58.89
2018-02-18T12:36:41.722Z,58.13
2018-02-18T12:37:42.254Z,57.94
2018-02-18T12:39:36.128Z,58.13
2018-02-18T12:40:36.139Z,57.56
2018-02-18T12:42:29.595Z,57.37
2018-02-18T12:43:29.566Z,57.28
2018-02-18T12:45:24.019Z,56.32
2018-02-18T12:46:24.010Z,56.70
2018-02-18T12:48:19.959Z,56.32
2018-02-18T12:51:10.165Z,56.23
2018-02-18T12:52:10.154Z,56.23
2018-02-18T12:54:05.120Z,56.51
2018-02-18T12:55:04.593Z,56.61
2018-02-18T12:56:59.005Z,55.76
2018-02-18T12:57:59.029Z,56.13
2018-02-18T12:59:54.460Z,56.04
2018-02-18T13:00:53.452Z,56.32
2018-02-18T13:02:50.893Z,56.13
2018-02-18T13:03:49.375Z,56.51
2018-02-18T13:05:42.868Z,56.51
2018-02-18T13:06:43.333Z,56.32
2018-02-18T13:08:37.755Z,56.51
2018-02-18T13:09:37.216Z,56.89
2018-02-18T13:11:32.646Z,56.61
2018-02-18T13:12:31.647Z,56.51
2018-02-18T13:14:25.082Z,56.61
2018-02-18T13:15:25.073Z,56.80
2018-02-18T13:17:19.512Z,56.42
2018-02-18T13:18:19.501Z,56.61
2018-02-18T13:20:13.956Z,55.94
2018-02-18T13:21:13.922Z,56.13
2018-02-18T13:23:08.891Z,55.94
2018-02-18T13:24:08.365Z,56.26
2018-02-18T13:26:02.797Z,56.54
2018-02-18T13:27:02.796Z,56.16
2018-02-18T13:28:57.232Z,55.59
2018-02-18T14:31:14.907Z,52.20
2018-02-18T14:32:14.346Z,53.53
2018-02-18T14:34:09.792Z,52.67
2018-02-18T14:35:08.787Z,53.34
2018-02-18T14:37:04.729Z,51.62
2018-02-18T14:38:05.234Z,51.91
2018-02-18T14:39:59.167Z,52.20
2018-02-18T14:40:59.669Z,51.72
2018-02-18T14:42:53.608Z,52.29
2018-02-18T14:43:53.587Z,52.10
2018-02-18T14:45:48.537Z,52.10
2018-02-18T14:46:48.002Z,53.34
2018-02-18T14:48:42.487Z,52.20
2018-02-18T14:49:42.432Z,52.10
2018-02-18T14:51:35.837Z,51.43
2018-02-18T14:52:35.841Z,51.06
2018-02-18T14:54:31.829Z,51.62
2018-02-18T14:55:31.774Z,51.15
2018-02-18T14:57:27.738Z,50.48
2018-02-18T14:58:27.728Z,51.43
2018-02-18T15:00:23.702Z,52.10
2018-02-18T15:01:23.675Z,51.82
2018-02-18T15:03:19.634Z,51.25
2018-02-18T15:04:20.554Z,51.25
2018-02-18T15:06:15.522Z,51.27
2018-02-18T15:07:16.052Z,51.25
2018-02-18T15:09:11.978Z,50.29
2018-02-18T15:10:11.443Z,50.58
2018-02-18T15:12:07.404Z,50.48
2018-02-18T15:13:07.408Z,50.68
2018-02-18T15:15:02.834Z,50.68
2018-02-18T15:16:01.830Z,50.58
2018-02-18T15:17:57.733Z,50.58
2018-02-18T15:18:57.734Z,50.48
2018-02-18T15:20:53.194Z,50.48
2018-02-18T15:21:52.692Z,50.29
2018-02-18T15:23:48.089Z,50.68
2018-02-18T15:24:48.109Z,50.37
2018-02-18T15:26:45.565Z,50.46
2018-02-18T15:27:45.096Z,50.56
2018-02-18T15:29:40.525Z,49.41
2018-02-18T15:30:40.524Z,49.13
2018-02-18T15:32:36.459Z,49.32
2018-02-18T15:33:35.944Z,48.94
2018-02-18T15:35:32.428Z,49.22
2018-02-18T15:36:31.885Z,48.94
2018-02-18T15:38:26.841Z,48.66
2018-02-18T15:39:27.832Z,49.32
2018-02-18T15:41:20.716Z,49.32
2018-02-18T15:42:20.715Z,49.41
2018-02-18T15:44:14.675Z,49.79
2018-02-18T15:45:14.669Z,49.22
2018-02-18T15:47:10.607Z,49.89
2018-02-18T15:48:10.085Z,49.89
2018-02-18T15:50:04.547Z,50.27
2018-02-18T15:51:03.535Z,50.08
2018-02-18T15:52:56.958Z,50.84
2018-02-18T15:53:56.938Z,51.12
2018-02-18T15:55:52.915Z,51.31
2018-02-18T15:56:52.873Z,51.79
2018-02-18T15:58:50.757Z,52.26
2018-02-18T15:59:49.320Z,52.33
2018-02-18T16:01:44.720Z,53.19
2018-02-18T16:02:45.234Z,53.09
2018-02-18T16:04:40.699Z,53.19
2018-02-18T16:05:40.637Z,53.57
2018-02-18T16:07:36.104Z,53.95
2018-02-18T16:08:35.120Z,54.33
2018-02-18T16:10:31.024Z,54.14
2018-02-18T16:11:31.029Z,54.61
2018-02-18T16:13:25.460Z,54.80
2018-02-18T16:14:25.536Z,54.90
2018-02-18T16:16:22.406Z,55.18
2018-02-18T16:17:22.407Z,55.76
2018-02-18T16:19:17.366Z,56.13
2018-02-18T16:20:17.366Z,56.13
2018-02-18T16:22:13.320Z,56.23
2018-02-18T16:23:13.272Z,56.04
2018-02-18T16:25:07.689Z,56.61
2018-02-18T16:26:07.699Z,56.61
2018-02-18T16:28:03.675Z,57.18
2018-02-18T16:29:03.611Z,57.28
2018-02-18T16:30:59.579Z,57.43
2018-02-18T16:31:59.559Z,57.91
2018-02-18T16:33:56.994Z,58.00
2018-02-18T16:34:55.467Z,58.39
2018-02-18T16:36:51.438Z,58.39
2018-02-18T16:37:51.390Z,58.86
2018-02-18T16:39:47.371Z,58.86
2018-02-18T16:40:47.321Z,58.76
2018-02-18T16:42:43.297Z,59.14
2018-02-18T16:43:43.294Z,58.95
2018-02-18T16:45:39.228Z,59.91
2018-02-18T16:46:39.199Z,59.52
2018-02-18T16:48:35.109Z,59.91
2018-02-18T16:49:35.665Z,60.66
2018-02-18T16:51:31.030Z,60.28
2018-02-18T16:52:31.035Z,60.47
2018-02-18T16:54:25.534Z,61.52
2018-02-18T16:55:25.460Z,60.38
2018-02-18T16:57:21.451Z,61.42
2018-02-18T16:58:21.427Z,61.23
2018-02-18T17:00:16.881Z,61.39
2018-02-18T17:01:15.841Z,61.39
2018-02-18T17:03:10.811Z,61.77
2018-02-18T17:04:10.273Z,61.77
2018-02-18T17:06:04.223Z,62.43
2018-02-18T17:07:03.700Z,62.24
2018-02-18T17:08:57.645Z,62.53
2018-02-18T17:09:57.652Z,63.39
2018-02-18T17:11:51.590Z,62.91
2018-02-18T17:12:51.573Z,62.82
2018-02-18T17:14:46.026Z,63.57
2018-02-18T17:15:46.006Z,63.39
2018-02-18T17:19:14.055Z,64.05
2018-02-18T17:20:13.516Z,64.43
2018-02-18T17:22:07.965Z,64.40
2018-02-18T17:23:07.961Z,64.20
2018-02-18T17:25:02.407Z,64.87
2018-02-18T17:26:02.372Z,64.78
2018-02-18T17:27:58.324Z,64.87
2018-02-18T17:28:58.331Z,65.53
2018-02-18T17:30:52.063Z,64.59
2018-02-18T17:31:52.055Z,65.16
2018-02-18T17:33:48.536Z,65.16
2018-02-18T17:34:47.979Z,64.87
2018-02-18T17:36:43.943Z,65.34
2018-02-18T17:37:43.915Z,65.16
2018-02-18T17:39:39.805Z,64.87
2018-02-18T17:40:41.414Z,65.53
2018-02-18T17:42:36.363Z,65.63
2018-02-18T17:43:35.814Z,65.44
2018-02-18T17:47:13.971Z,65.63
2018-02-18T17:48:12.913Z,65.44
2018-02-18T17:50:14.262Z,65.63
2018-02-18T17:51:13.357Z,66.20
2018-02-18T17:53:15.318Z,65.63
2018-02-18T17:54:13.890Z,65.53
2018-02-18T17:56:14.221Z,65.63
2018-02-18T17:57:14.196Z,65.72
2018-02-18T17:59:12.640Z,65.72
2018-02-18T18:00:12.228Z,66.39
2018-02-18T18:02:11.187Z,66.20
2018-02-18T18:03:10.170Z,65.82
2018-02-18T18:05:09.657Z,66.20
2018-02-18T18:06:08.219Z,66.10
2018-02-18T18:08:07.650Z,66.58
2018-02-18T18:09:06.216Z,66.67
2018-02-18T18:11:05.173Z,66.93
2018-02-18T18:12:04.265Z,66.93
2018-02-18T18:14:03.710Z,66.83
2018-02-18T18:15:02.201Z,66.83
2018-02-18T18:17:00.259Z,66.93
2018-02-18T18:18:00.228Z,66.93
2018-02-18T18:20:00.649Z,67.21
2018-02-18T18:21:01.185Z,67.40
2018-02-18T18:22:56.656Z,67.49
2018-02-18T18:23:57.118Z,67.58
2018-02-18T18:25:50.550Z,68.06
2018-02-18T18:26:51.047Z,67.77
2018-02-18T18:28:48.509Z,67.77
2018-02-18T18:29:48.474Z,67.68
2018-02-18T18:31:44.880Z,68.06
2018-02-18T18:32:43.855Z,67.77
2018-02-18T18:34:40.388Z,68.25
2018-02-18T18:35:40.374Z,68.25
2018-02-18T18:37:37.813Z,68.25
2018-02-18T18:38:38.255Z,68.15
2018-02-18T18:40:33.711Z,68.35
2018-02-18T18:41:34.217Z,68.82
2018-02-18T18:43:29.658Z,68.54
2018-02-18T18:44:29.572Z,68.63
2018-02-18T18:46:25.574Z,68.63
2018-02-18T18:47:25.525Z,68.73
2018-02-18T18:49:21.517Z,69.38
2018-02-18T18:52:17.396Z,69.57
2018-02-18T18:53:17.364Z,69.48
2018-02-18T18:55:13.341Z,69.67
2018-02-18T18:56:13.293Z,70.05
2018-02-18T18:58:09.193Z,69.82
2018-02-18T18:59:09.210Z,70.39
2018-02-18T19:01:07.126Z,69.92
2018-02-18T19:02:07.126Z,70.49
2018-02-18T19:04:03.068Z,70.87
2018-02-18T19:05:03.606Z,70.58
2018-02-18T19:06:59.026Z,70.78
2018-02-18T19:07:58.971Z,70.87
2018-02-18T19:09:55.415Z,70.49
2018-02-18T19:10:54.900Z,70.78
2018-02-18T19:12:50.821Z,71.15
2018-02-18T19:13:52.376Z,70.87
2018-02-18T19:15:50.275Z,71.25
2018-02-18T19:16:49.799Z,71.25
2018-02-18T19:18:48.916Z,71.25
2018-02-18T19:19:48.487Z,71.34
2018-02-18T19:21:43.952Z,71.34
2018-02-18T19:24:37.942Z,71.25
2018-02-18T19:25:37.948Z,71.34
2018-02-18T19:27:33.807Z,71.53
2018-02-18T19:28:34.102Z,71.53
2018-02-18T19:30:33.947Z,70.78
2018-02-18T19:31:32.777Z,70.39
2018-02-18T19:33:28.030Z,70.58
2018-02-18T19:34:27.984Z,70.58
2018-02-18T19:36:23.936Z,70.78
2018-02-18T19:37:23.896Z,70.30
2018-02-18T19:39:19.885Z,70.78
2018-02-18T19:40:20.357Z,70.68
2018-02-18T19:42:16.256Z,70.49
2018-02-18T19:43:15.728Z,70.01
2018-02-18T19:45:14.658Z,70.01
2018-02-18T19:46:15.591Z,70.49
2018-02-18T19:48:11.782Z,70.49
2018-02-18T19:49:11.756Z,70.39
2018-02-18T19:51:10.215Z,70.39
2018-02-18T19:52:09.669Z,70.49
2018-02-18T19:54:07.622Z,70.11
2018-02-18T19:55:08.549Z,70.01
2018-02-18T19:57:05.533Z,69.92